»·PEaware :: SKY26 KPRC-KHII

SKY26 :: KPRC-KHII

FLIGHT INFORMATION

Flight Status: Arrived
Operator:
Sky High Charters
More flights by this operator :: More flights under this callsign
Pilot: Greg L. (27107)
Aircraft: CIRRUS VISIONJET
(SF50)
More flights by this aircraft type
Origin: KPRC Love
United States
Destination: KHII Lake Havasu City
United States
More flights between these airports :: More routes between these airports
Route: WNSKI2 MUMTE V12 EED
File this flight plan on PilotEdge
Remarks:
Altitude:
(Current/Filed)
16,000ft
Speed:
(Current/Filed)
200kts
Departed: 16-Jan-21 12:07 PM
Arrived: 16-Jan-21 12:54 PM
Distance/Time
Traveled:
96nm/0:47
Distance/Time
To Go:
Arrived

Flight Plot

Page will automatically refresh every two minutes.

Flight plan parsing failed; only flown route is shown


Map Options




Map Legend


Flown Route
Filed Route
Departure Airport
Arrival Airport
Navaid (VOR, NDB)
Fix

Horizontal Profiles

Position Reports

Time Latitude Longitude Heading Altitude Ground
Speed
16-Jan-21 11:40 34.646496 -112.425012 43 5025ft 0kts
16-Jan-21 11:41 34.646496 -112.425012 43 5025ft 0kts
16-Jan-21 11:42 34.646496 -112.425012 43 5025ft 0kts
16-Jan-21 11:43 34.646496 -112.425012 43 5025ft 0kts
16-Jan-21 11:44 34.646496 -112.425012 43 5025ft 0kts
16-Jan-21 11:45 34.646496 -112.425012 43 5025ft 0kts
16-Jan-21 11:46 34.646496 -112.425012 43 5025ft 0kts
16-Jan-21 11:47 34.646496 -112.425012 43 5025ft 0kts
16-Jan-21 11:48 34.646496 -112.425012 43 5025ft 0kts
16-Jan-21 11:49 34.646496 -112.425012 43 5025ft 0kts
16-Jan-21 11:50 34.646496 -112.425012 43 5025ft 0kts
16-Jan-21 11:51 34.646496 -112.425012 43 5025ft 0kts
16-Jan-21 11:52 34.646496 -112.425012 43 5025ft 0kts
16-Jan-21 11:53 34.646496 -112.425012 43 5025ft 0kts
16-Jan-21 11:54 34.647716 -112.424916 40 5020ft 8kts
16-Jan-21 11:55 34.647667 -112.423069 130 5021ft 9kts
16-Jan-21 11:56 34.645256 -112.420296 137 5035ft 10kts
16-Jan-21 11:57 34.643705 -112.418351 63 5040ft 0kts
16-Jan-21 11:58 34.643705 -112.418351 63 5040ft 0kts
16-Jan-21 11:59 34.643705 -112.418351 63 5040ft 0kts
16-Jan-21 12:00 34.643705 -112.418351 63 5040ft 0kts
16-Jan-21 12:01 34.643705 -112.418351 63 5040ft 0kts
16-Jan-21 12:02 34.643705 -112.418351 63 5040ft 0kts
16-Jan-21 12:03 34.643705 -112.418351 63 5040ft 0kts
16-Jan-21 12:04 34.643705 -112.418351 63 5040ft 0kts
16-Jan-21 12:05 34.643779 -112.418224 50 5039ft 5kts
16-Jan-21 12:06 34.653887 -112.429444 315 5215ft 115kts
16-Jan-21 12:07 34.685179 -112.448011 43 6574ft 169kts
16-Jan-21 12:08 34.655423 -112.409094 155 7454ft 190kts
16-Jan-21 12:09 34.616812 -112.362299 129 8969ft 200kts
16-Jan-21 12:10 34.579267 -112.309720 129 10569ft 209kts
16-Jan-21 12:11 34.535449 -112.263409 190 12189ft 217kts
16-Jan-21 12:13 34.494535 -112.311847 243 13006ft 245kts
16-Jan-21 12:14 34.463972 -112.389160 259 12998ft 252kts
16-Jan-21 12:15 34.452562 -112.472098 274 12998ft 244kts
16-Jan-21 12:16 34.459801 -112.553253 288 12997ft 239kts
16-Jan-21 12:17 34.482595 -112.624863 302 13635ft 176kts
16-Jan-21 12:18 34.505986 -112.667941 311 15872ft 145kts
16-Jan-21 12:19 34.541891 -112.713081 320 16005ft 219kts
16-Jan-21 12:20 34.594234 -112.754236 332 16000ft 224kts
16-Jan-21 12:21 34.654074 -112.778582 344 15999ft 227kts
16-Jan-21 12:22 34.718622 -112.790823 322 15999ft 246kts
16-Jan-21 12:23 34.717061 -112.875188 285 16011ft 263kts
16-Jan-21 12:24 34.721198 -112.966535 278 15998ft 272kts
16-Jan-21 12:25 34.724450 -113.060141 277 15998ft 276kts
16-Jan-21 12:26 34.727691 -113.153987 277 15997ft 275kts
16-Jan-21 12:26 34.730366 -113.232386 277 15997ft 274kts
16-Jan-21 12:27 34.733497 -113.326040 277 15997ft 274kts
16-Jan-21 12:29 34.737056 -113.435283 277 15997ft 274kts
16-Jan-21 12:30 34.740019 -113.528653 277 16079ft 275kts
16-Jan-21 12:30 34.742447 -113.606844 277 16078ft 275kts
16-Jan-21 12:31 34.745297 -113.700735 276 16081ft 275kts
16-Jan-21 12:32 34.748065 -113.794311 276 16075ft 275kts
16-Jan-21 12:33 34.750770 -113.888482 276 16049ft 275kts
16-Jan-21 12:34 34.753053 -113.970382 276 14971ft 235kts
16-Jan-21 12:35 34.755102 -114.044204 276 12935ft 205kts
16-Jan-21 12:36 34.756052 -114.112247 259 10898ft 200kts
16-Jan-21 12:37 34.707704 -114.109068 154 8913ft 216kts
16-Jan-21 12:38 34.652127 -114.097531 176 7968ft 182kts
16-Jan-21 12:39 34.600973 -114.090688 176 7972ft 184kts
16-Jan-21 12:40 34.549374 -114.083793 176 7972ft 185kts
16-Jan-21 12:41 34.497928 -114.076927 176 7972ft 184kts
16-Jan-21 12:42 34.446203 -114.070033 176 7972ft 184kts
16-Jan-21 12:43 34.407710 -114.098945 242 7636ft 177kts
16-Jan-21 12:44 34.382435 -114.150522 242 6114ft 175kts
16-Jan-21 12:45 34.363462 -114.202847 292 4597ft 167kts
16-Jan-21 12:46 34.398607 -114.236325 328 3482ft 136kts
16-Jan-21 12:47 34.432208 -114.260114 329 3472ft 139kts
16-Jan-21 12:48 34.466125 -114.284033 329 3014ft 121kts
16-Jan-21 12:49 34.491390 -114.301878 329 2404ft 95kts
16-Jan-21 12:50 34.514490 -114.318205 329 1889ft 95kts
16-Jan-21 12:51 34.537705 -114.334622 329 1368ft 96kts
16-Jan-21 12:52 34.561207 -114.351326 329 825ft 95kts
16-Jan-21 12:53 34.573359 -114.359928 329 765ft 28kts
16-Jan-21 12:54 34.573695 -114.361416 151 759ft 6kts
16-Jan-21 12:55 34.571103 -114.359573 148 755ft 13kts
16-Jan-21 12:56 34.568631 -114.358417 149 747ft 10kts
16-Jan-21 12:57 34.567340 -114.358782 283 733ft 0kts
16-Jan-21 12:58 34.567340 -114.358782 283 733ft 0kts
16-Jan-21 12:59 34.567340 -114.358782 283 733ft 0kts

Navigation Log

Ident Type
Flight plan parsing failed, navigation log unavailable